Hales Eddy, New York
Current Conditions -  °F | °C
As of 1:55 PM on Tuesday 27 Jan 2015 (Local Time) from KMSV Reporting Station
Overcast Overcast  
Wind Chill:   Ceiling: 1500
Heat Index: 19°   Visibility: 1.7mi
Dew Point: 16°   Wind: 10mph
Humidity: 86%   Direction: 300°WNW
Pressure: 29.67"   Gusts: 18mph
Location:  41.9099°N, 75.1815°W
Report Text: KMSV 271855Z AUTO 30009G16KT 1 3/4SM OVC015 M07/M09 A2967 RMK AO1
Loading
Personal Weather Stations






























Interactive Weather Map New forecast layout! Learn more

10-Day Weather Forecast

Advertisements
Track Severe Weather on mobile